createdAt,value
2018-03-11T00:01:14.502Z,10.12
2018-03-11T00:03:17.041Z,10.09
2018-03-11T00:05:19.626Z,10.13
2018-03-11T00:07:22.255Z,10.11
2018-03-11T00:09:24.812Z,10.06
2018-03-11T00:11:27.291Z,10.05
2018-03-11T00:13:29.801Z,9.93
2018-03-11T00:15:32.289Z,9.90
2018-03-11T00:17:34.767Z,9.94
2018-03-11T00:19:37.281Z,9.96
2018-03-11T00:21:39.827Z,9.96
2018-03-11T00:23:42.376Z,9.99
2018-03-11T00:25:44.866Z,10.03
2018-03-11T00:27:47.346Z,10.06
2018-03-11T00:29:49.841Z,10.06
2018-03-11T00:31:52.377Z,10.15
2018-03-11T00:33:54.847Z,10.13
2018-03-11T00:35:57.343Z,10.14
2018-03-11T00:37:59.927Z,10.05
2018-03-11T00:40:02.383Z,10.06
2018-03-11T00:42:04.907Z,10.05
2018-03-11T00:44:07.509Z,10.10
2018-03-11T00:46:10.002Z,10.13
2018-03-11T00:48:12.461Z,9.98
2018-03-11T00:50:14.956Z,9.91
2018-03-11T00:52:17.437Z,9.91
2018-03-11T00:54:20.010Z,9.92
2018-03-11T00:56:22.462Z,9.94
2018-03-11T00:58:25.031Z,9.94
2018-03-11T01:00:27.478Z,9.99
2018-03-11T01:02:29.927Z,10.04
2018-03-11T01:04:32.440Z,9.95
2018-03-11T01:06:34.921Z,9.97
2018-03-11T01:08:38.033Z,10.07
2018-03-11T01:10:40.572Z,10.04
2018-03-11T01:12:43.127Z,10.06
2018-03-11T01:14:45.612Z,10.04
2018-03-11T01:16:48.100Z,10.03
2018-03-11T01:18:50.630Z,10.09
2018-03-11T01:20:53.093Z,10.09
2018-03-11T01:22:55.563Z,10.09
2018-03-11T01:24:58.070Z,10.08
2018-03-11T01:27:00.538Z,10.05
2018-03-11T01:29:02.973Z,10.00
2018-03-11T01:31:05.483Z,9.88
2018-03-11T01:33:07.972Z,9.88
2018-03-11T01:35:10.412Z,9.90
2018-03-11T01:37:12.932Z,9.90
2018-03-11T01:39:15.421Z,9.94
2018-03-11T01:41:17.936Z,9.92
2018-03-11T01:43:20.420Z,9.94
2018-03-11T01:45:22.867Z,9.93
2018-03-11T01:47:25.404Z,9.96
2018-03-11T01:49:27.856Z,9.97
2018-03-11T01:51:30.297Z,9.98
2018-03-11T01:53:32.797Z,10.05
2018-03-11T01:55:35.225Z,10.04
2018-03-11T01:57:37.692Z,10.01
2018-03-11T01:59:40.164Z,10.07
2018-03-11T02:01:42.729Z,10.13
2018-03-11T02:03:45.216Z,10.16
2018-03-11T02:05:47.682Z,10.13
2018-03-11T02:07:50.127Z,10.11
2018-03-11T02:09:52.598Z,10.11
2018-03-11T02:11:55.048Z,10.03
2018-03-11T02:13:57.512Z,10.05
2018-03-11T02:15:59.974Z,9.99
2018-03-11T02:18:02.441Z,10.09
2018-03-11T02:20:04.987Z,10.09
2018-03-11T02:22:07.583Z,10.07
2018-03-11T02:24:10.114Z,10.09
2018-03-11T02:26:12.672Z,10.12
2018-03-11T02:28:15.139Z,10.05
2018-03-11T02:30:17.625Z,10.10
2018-03-11T02:32:20.120Z,10.14
2018-03-11T02:34:22.649Z,10.14
2018-03-11T02:36:25.137Z,10.15
2018-03-11T02:38:27.587Z,10.21
2018-03-11T02:40:30.095Z,10.22
2018-03-11T02:42:32.570Z,10.24
2018-03-11T02:44:35.093Z,10.27
2018-03-11T02:46:37.612Z,10.26
2018-03-11T02:48:40.096Z,10.23
2018-03-11T02:50:42.632Z,10.28
2018-03-11T02:52:45.183Z,10.59
2018-03-11T02:54:47.632Z,10.40
2018-03-11T02:56:50.132Z,10.38
2018-03-11T02:58:52.669Z,10.37
2018-03-11T03:00:55.178Z,10.44
2018-03-11T03:02:57.634Z,10.41
2018-03-11T03:05:00.150Z,10.31
2018-03-11T03:07:02.592Z,10.25
2018-03-11T03:09:05.074Z,10.21
2018-03-11T03:11:07.574Z,10.10
2018-03-11T03:13:10.116Z,10.04
2018-03-11T03:15:12.574Z,9.92
2018-03-11T03:17:15.099Z,9.85
2018-03-11T03:19:17.588Z,9.92
2018-03-11T03:21:20.087Z,9.86
2018-03-11T03:23:22.529Z,9.90
2018-03-11T03:25:25.030Z,9.93
2018-03-11T03:27:27.571Z,9.90
2018-03-11T03:29:30.093Z,9.95
2018-03-11T03:31:32.594Z,9.88
2018-03-11T03:33:35.144Z,9.80
2018-03-11T03:35:37.633Z,9.69
2018-03-11T03:37:40.139Z,9.69
2018-03-11T03:39:42.650Z,9.74
2018-03-11T03:41:45.223Z,9.74
2018-03-11T03:43:47.669Z,9.76
2018-03-11T03:45:50.155Z,9.78
2018-03-11T03:47:52.704Z,9.80
2018-03-11T03:49:55.127Z,9.74
2018-03-11T03:51:57.683Z,9.71
2018-03-11T03:54:00.178Z,9.75
2018-03-11T03:56:02.667Z,9.85
2018-03-11T03:58:05.164Z,9.78
2018-03-11T04:00:07.657Z,9.79
2018-03-11T04:02:10.308Z,9.78
2018-03-11T04:04:12.761Z,9.66
2018-03-11T04:06:15.194Z,9.55
2018-03-11T04:08:17.754Z,9.50
2018-03-11T04:10:20.194Z,9.55
2018-03-11T04:12:22.687Z,9.57
2018-03-11T04:14:25.175Z,9.55
2018-03-11T04:16:27.710Z,9.55
2018-03-11T04:18:30.205Z,9.56
2018-03-11T04:20:32.683Z,9.55
2018-03-11T04:22:35.189Z,9.50
2018-03-11T04:24:37.699Z,9.38
2018-03-11T04:26:40.153Z,9.41
2018-03-11T04:28:42.663Z,9.53
2018-03-11T04:30:45.163Z,9.64
2018-03-11T04:32:47.653Z,9.55
2018-03-11T04:34:50.132Z,9.64
2018-03-11T04:36:52.603Z,9.57
2018-03-11T04:38:55.020Z,9.60
2018-03-11T04:40:57.524Z,9.51
2018-03-11T04:43:00.014Z,9.49
2018-03-11T04:45:02.477Z,9.35
2018-03-11T04:47:05.108Z,9.32
2018-03-11T04:49:07.531Z,9.34
2018-03-11T04:51:10.033Z,9.27
2018-03-11T04:53:12.583Z,9.32
2018-03-11T04:55:15.104Z,9.22
2018-03-11T04:57:17.675Z,9.20
2018-03-11T04:59:20.110Z,9.21
2018-03-11T05:01:22.655Z,9.12
2018-03-11T05:03:25.109Z,9.08
2018-03-11T05:05:27.564Z,9.20
2018-03-11T05:07:30.035Z,9.16
2018-03-11T05:09:32.485Z,9.03
2018-03-11T05:11:34.946Z,9.02
2018-03-11T05:13:37.388Z,9.11
2018-03-11T05:15:39.884Z,9.07
2018-03-11T05:17:42.410Z,9.04
2018-03-11T05:19:44.843Z,9.10
2018-03-11T05:21:47.314Z,8.98
2018-03-11T05:23:49.820Z,9.01
2018-03-11T05:25:52.277Z,9.02
2018-03-11T05:27:54.735Z,9.06
2018-03-11T05:29:57.250Z,9.07
2018-03-11T05:31:59.751Z,9.00
2018-03-11T05:34:02.268Z,8.97
2018-03-11T05:36:04.736Z,9.01
2018-03-11T05:38:07.231Z,8.89
2018-03-11T05:40:09.825Z,8.81
2018-03-11T05:42:12.419Z,8.83
2018-03-11T05:44:14.890Z,8.86
2018-03-11T05:46:17.370Z,8.98
2018-03-11T05:48:19.895Z,8.96
2018-03-11T05:50:22.415Z,9.10
2018-03-11T05:52:24.866Z,9.05
2018-03-11T05:54:27.335Z,9.12
2018-03-11T05:56:29.788Z,9.19
2018-03-11T05:58:32.291Z,9.18
2018-03-11T06:00:34.845Z,9.31
2018-03-11T06:02:37.280Z,9.45
2018-03-11T06:04:39.746Z,9.70
2018-03-11T06:06:42.226Z,9.67
2018-03-11T06:08:44.726Z,9.79
2018-03-11T06:10:47.186Z,9.86
2018-03-11T06:12:49.715Z,10.14
2018-03-11T06:14:52.287Z,10.25
2018-03-11T06:16:54.828Z,10.49
2018-03-11T06:18:57.396Z,10.40
2018-03-11T06:20:59.859Z,10.39
2018-03-11T06:23:02.396Z,10.50
2018-03-11T06:25:04.912Z,10.60
2018-03-11T06:27:07.369Z,10.67
2018-03-11T06:29:09.847Z,10.62
2018-03-11T06:31:12.281Z,10.54
2018-03-11T06:33:14.817Z,10.54
2018-03-11T06:35:17.344Z,10.46
2018-03-11T06:37:19.837Z,10.46
2018-03-11T06:39:22.375Z,10.42
2018-03-11T06:41:24.821Z,10.55
2018-03-11T06:43:27.261Z,10.50
2018-03-11T06:45:29.749Z,10.57
2018-03-11T06:47:32.224Z,10.56
2018-03-11T06:49:34.795Z,10.66
2018-03-11T06:51:37.244Z,10.70
2018-03-11T06:53:39.700Z,10.53
2018-03-11T06:55:42.246Z,10.69
2018-03-11T06:57:44.763Z,10.55
2018-03-11T06:59:47.241Z,10.64
2018-03-11T07:01:49.751Z,10.78
2018-03-11T07:03:52.241Z,10.80
2018-03-11T07:05:54.730Z,10.72
2018-03-11T07:07:57.199Z,10.85
2018-03-11T07:09:59.717Z,10.86
2018-03-11T07:12:02.304Z,10.97
2018-03-11T07:14:04.745Z,10.94
2018-03-11T07:16:07.305Z,11.01
2018-03-11T07:18:09.820Z,10.90
2018-03-11T07:20:12.391Z,10.93
2018-03-11T07:22:14.928Z,10.86
2018-03-11T07:24:17.354Z,11.04
2018-03-11T07:26:19.920Z,11.19
2018-03-11T07:28:23.600Z,11.12
2018-03-11T07:30:26.071Z,11.08
2018-03-11T07:32:28.562Z,11.10
2018-03-11T07:34:31.172Z,11.04
2018-03-11T07:36:33.772Z,11.01
2018-03-11T07:38:36.362Z,11.12
2018-03-11T07:40:38.834Z,11.17
2018-03-11T07:42:41.302Z,11.20
2018-03-11T07:44:43.824Z,11.39
2018-03-11T07:46:46.336Z,11.48
2018-03-11T07:48:48.837Z,11.67
2018-03-11T07:50:51.356Z,11.69
2018-03-11T07:52:53.807Z,11.74
2018-03-11T07:54:56.322Z,11.74
2018-03-11T07:56:58.827Z,11.90
2018-03-11T07:59:01.322Z,11.90
2018-03-11T08:01:03.814Z,11.99
2018-03-11T08:03:06.390Z,12.01
2018-03-11T08:05:08.985Z,11.93
2018-03-11T08:07:11.481Z,11.97
2018-03-11T08:09:14.067Z,12.27
2018-03-11T08:11:16.600Z,12.34
2018-03-11T08:13:19.031Z,12.40
2018-03-11T08:15:22.211Z,12.37
2018-03-11T08:17:24.721Z,12.33
2018-03-11T08:19:27.176Z,12.29
2018-03-11T08:21:29.630Z,12.20
2018-03-11T08:23:32.232Z,12.32
2018-03-11T08:25:34.772Z,12.61
2018-03-11T08:27:37.258Z,12.62
2018-03-11T08:29:39.752Z,12.52
2018-03-11T08:31:42.249Z,12.55
2018-03-11T08:33:44.698Z,12.74
2018-03-11T08:35:47.205Z,12.76
2018-03-11T08:37:49.673Z,12.42
2018-03-11T08:39:52.202Z,12.64
2018-03-11T08:41:54.802Z,12.78
2018-03-11T08:43:57.376Z,12.78
2018-03-11T08:45:59.850Z,12.86
2018-03-11T08:48:02.312Z,12.86
2018-03-11T08:50:04.774Z,12.91
2018-03-11T08:52:07.266Z,12.93
2018-03-11T08:54:09.741Z,12.86
2018-03-11T08:56:12.226Z,12.87
2018-03-11T08:58:14.765Z,12.74
2018-03-11T09:00:17.242Z,12.51
2018-03-11T09:02:19.759Z,12.61
2018-03-11T09:04:22.197Z,12.71
2018-03-11T09:06:24.688Z,12.91
2018-03-11T09:08:27.192Z,13.12
2018-03-11T09:10:29.752Z,13.21
2018-03-11T09:12:32.213Z,13.10
2018-03-11T09:14:34.687Z,13.32
2018-03-11T09:16:37.186Z,13.46
2018-03-11T09:18:39.668Z,13.46
2018-03-11T09:20:42.149Z,13.73
2018-03-11T09:22:44.751Z,13.79
2018-03-11T09:24:47.242Z,13.65
2018-03-11T09:26:49.740Z,13.48
2018-03-11T09:28:52.228Z,13.58
2018-03-11T09:30:54.712Z,13.59
2018-03-11T09:32:57.431Z,13.68
2018-03-11T09:34:59.883Z,13.63
2018-03-11T09:37:02.383Z,13.29
2018-03-11T09:39:04.841Z,13.37
2018-03-11T09:41:07.343Z,13.46
2018-03-11T09:43:09.942Z,13.34
2018-03-11T09:45:12.400Z,13.34
2018-03-11T09:47:14.906Z,13.32
2018-03-11T09:49:17.459Z,13.36
2018-03-11T09:51:19.912Z,13.41
2018-03-11T09:53:22.519Z,13.48
2018-03-11T09:55:25.018Z,13.56
2018-03-11T09:57:27.547Z,13.51
2018-03-11T09:59:30.073Z,13.43
2018-03-11T10:01:32.579Z,13.56
2018-03-11T10:03:35.118Z,13.78
2018-03-11T10:05:37.632Z,13.66
2018-03-11T10:07:40.104Z,13.79
2018-03-11T10:09:42.706Z,13.76
2018-03-11T10:11:45.298Z,13.77
2018-03-11T10:13:47.747Z,13.75
2018-03-11T10:15:50.239Z,13.61
2018-03-11T10:17:52.709Z,13.58
2018-03-11T10:19:55.238Z,13.51
2018-03-11T10:21:57.740Z,13.65
2018-03-11T10:24:00.203Z,13.73
2018-03-11T10:26:02.747Z,14.03
2018-03-11T10:28:05.190Z,14.15
2018-03-11T10:30:07.702Z,14.25
2018-03-11T10:32:10.299Z,14.08
2018-03-11T10:34:12.822Z,14.21
2018-03-11T10:36:15.414Z,14.15
2018-03-11T10:38:17.949Z,13.90
2018-03-11T10:40:20.477Z,13.88
2018-03-11T10:42:23.007Z,13.82
2018-03-11T10:44:25.481Z,13.73
2018-03-11T10:46:28.002Z,13.45
2018-03-11T10:48:30.582Z,13.67
2018-03-11T10:50:33.074Z,13.66
2018-03-11T10:52:35.572Z,13.67
2018-03-11T10:54:38.100Z,13.67
2018-03-11T10:58:52.254Z,13.53
2018-03-11T11:00:54.749Z,13.62
2018-03-11T11:03:02.854Z,13.77
2018-03-11T11:05:05.383Z,13.73
2018-03-11T11:07:07.913Z,13.76
2018-03-11T11:09:10.390Z,13.75
2018-03-11T11:11:12.868Z,13.70
2018-03-11T11:13:15.349Z,13.76
2018-03-11T11:15:17.839Z,13.75
2018-03-11T11:17:20.358Z,13.92
2018-03-11T11:19:22.917Z,13.94
2018-03-11T11:21:25.390Z,13.83
2018-03-11T11:23:27.869Z,13.78
2018-03-11T11:25:30.460Z,13.90
2018-03-11T11:27:32.928Z,13.79
2018-03-11T11:29:35.381Z,13.77
2018-03-11T11:31:37.899Z,13.84
2018-03-11T11:33:40.433Z,13.89
2018-03-11T11:35:42.999Z,13.90
2018-03-11T11:37:45.475Z,13.70
2018-03-11T11:39:48.050Z,13.59
2018-03-11T11:41:50.494Z,13.73
2018-03-11T11:43:53.052Z,13.69
2018-03-11T11:45:55.591Z,13.75
2018-03-11T11:47:58.082Z,13.89
2018-03-11T11:50:00.614Z,13.91
2018-03-11T11:52:03.080Z,13.93
2018-03-11T11:54:05.573Z,14.06
2018-03-11T11:56:08.101Z,14.18
2018-03-11T11:58:10.697Z,14.09
2018-03-11T12:00:13.108Z,14.25
2018-03-11T12:02:15.574Z,14.35
2018-03-11T12:04:18.086Z,14.49
2018-03-11T12:06:20.563Z,14.44
2018-03-11T12:08:23.074Z,14.49
2018-03-11T12:10:25.654Z,14.47
2018-03-11T12:12:28.210Z,14.53
2018-03-11T12:14:30.708Z,14.57
2018-03-11T12:16:33.201Z,14.51
2018-03-11T12:18:35.745Z,14.49
2018-03-11T12:20:38.331Z,14.60
2018-03-11T12:22:40.836Z,14.60
2018-03-11T12:24:43.413Z,14.63
2018-03-11T12:26:45.855Z,14.57
2018-03-11T12:28:48.415Z,14.66
2018-03-11T12:30:50.854Z,14.78
2018-03-11T12:32:53.381Z,14.77
2018-03-11T12:34:56.404Z,14.81
2018-03-11T12:36:59.135Z,14.85
2018-03-11T12:39:01.592Z,14.66
2018-03-11T12:41:04.146Z,14.88
2018-03-11T12:43:06.596Z,14.97
2018-03-11T12:45:09.122Z,14.75
2018-03-11T12:47:11.730Z,14.88
2018-03-11T12:49:14.130Z,14.94
2018-03-11T12:51:16.626Z,14.99
2018-03-11T12:53:19.235Z,14.92
2018-03-11T12:55:21.935Z,14.83
2018-03-11T12:57:24.465Z,14.73
2018-03-11T12:59:27.022Z,14.85
2018-03-11T13:01:29.453Z,14.91
2018-03-11T13:03:31.941Z,14.75
2018-03-11T13:05:34.494Z,14.93
2018-03-11T13:07:36.955Z,14.94
2018-03-11T13:09:39.455Z,14.98
2018-03-11T13:11:41.889Z,14.83
2018-03-11T13:13:44.406Z,14.82
2018-03-11T13:15:46.869Z,14.83
2018-03-11T13:17:49.365Z,14.88
2018-03-11T13:22:28.489Z,15.17
2018-03-11T13:24:30.996Z,15.30
2018-03-11T13:26:33.501Z,15.65
2018-03-11T13:28:46.859Z,15.77
2018-03-11T13:30:49.308Z,15.87
2018-03-11T13:33:03.599Z,15.89
2018-03-11T13:35:06.112Z,16.12
2018-03-11T13:37:08.594Z,16.15
2018-03-11T13:39:22.964Z,16.10
2018-03-11T13:41:25.471Z,16.11
2018-03-11T13:43:27.946Z,16.20
2018-03-11T13:45:42.097Z,16.29
2018-03-11T13:47:44.571Z,16.37
2018-03-11T13:49:47.044Z,16.34
2018-03-11T13:52:01.346Z,16.48
2018-03-11T13:54:03.761Z,16.78
2018-03-11T13:56:06.249Z,16.74
2018-03-11T13:58:29.319Z,16.74
2018-03-11T14:00:31.800Z,16.74
2018-03-11T14:02:34.330Z,16.75
2018-03-11T14:04:36.811Z,16.57
2018-03-11T14:06:39.324Z,16.61
2018-03-11T14:08:41.806Z,16.58
2018-03-11T14:10:44.261Z,16.46
2018-03-11T14:12:46.753Z,16.55
2018-03-11T14:14:49.303Z,16.57
2018-03-11T14:16:51.791Z,16.43
2018-03-11T14:18:54.338Z,16.48
2018-03-11T14:20:56.897Z,16.35
2018-03-11T14:22:59.372Z,16.49
2018-03-11T14:25:01.911Z,16.21
2018-03-11T14:27:04.457Z,16.28
2018-03-11T14:29:06.897Z,16.41
2018-03-11T14:31:09.411Z,16.29
2018-03-11T14:33:11.908Z,16.45
2018-03-11T14:35:14.583Z,16.56
2018-03-11T14:37:17.062Z,16.34
2018-03-11T14:39:19.526Z,16.27
2018-03-11T14:41:22.022Z,16.27
2018-03-11T14:43:24.550Z,16.21
2018-03-11T14:45:27.026Z,16.20
2018-03-11T14:47:29.536Z,16.02
2018-03-11T14:49:32.010Z,15.86
2018-03-11T14:51:34.497Z,15.89
2018-03-11T14:53:37.017Z,15.78
2018-03-11T14:55:39.715Z,15.77
2018-03-11T14:57:42.215Z,15.72
2018-03-11T14:59:44.662Z,15.77
2018-03-11T15:01:47.192Z,15.69
2018-03-11T15:03:49.646Z,15.61
2018-03-11T15:05:52.090Z,15.59
2018-03-11T15:07:54.650Z,15.57
2018-03-11T15:09:57.166Z,15.53
2018-03-11T15:11:59.653Z,15.56
2018-03-11T15:14:02.197Z,15.49
2018-03-11T15:16:04.735Z,15.58
2018-03-11T15:18:07.361Z,15.48
2018-03-11T15:20:09.866Z,15.48
2018-03-11T15:22:12.433Z,15.51
2018-03-11T15:24:14.940Z,15.48
2018-03-11T15:26:17.548Z,15.48
2018-03-11T15:28:19.975Z,15.58
2018-03-11T15:30:22.611Z,15.56
2018-03-11T15:32:25.097Z,15.55
2018-03-11T15:34:27.581Z,15.44
2018-03-11T15:36:30.191Z,15.45
2018-03-11T15:38:32.698Z,15.44
2018-03-11T15:40:35.349Z,15.45
2018-03-11T15:42:37.972Z,15.36
2018-03-11T15:44:40.511Z,15.37
2018-03-11T15:46:42.962Z,15.36
2018-03-11T15:48:45.568Z,15.37
2018-03-11T15:50:48.017Z,15.28
2018-03-11T15:52:50.484Z,15.26
2018-03-11T15:54:52.996Z,15.17
2018-03-11T15:56:55.502Z,14.99
2018-03-11T15:58:57.972Z,15.09
2018-03-11T16:01:00.518Z,15.04
2018-03-11T16:03:03.088Z,14.96
2018-03-11T16:05:05.714Z,14.94
2018-03-11T16:07:08.304Z,14.89
2018-03-11T16:09:10.769Z,14.87
2018-03-11T16:11:13.243Z,14.86
2018-03-11T16:13:15.702Z,14.83
2018-03-11T16:15:18.384Z,14.79
2018-03-11T16:17:20.866Z,14.71
2018-03-11T16:19:23.361Z,14.65
2018-03-11T16:21:25.922Z,14.68
2018-03-11T16:23:28.421Z,14.63
2018-03-11T16:25:31.010Z,14.58
2018-03-11T16:27:33.513Z,14.57
2018-03-11T16:29:35.993Z,14.56
2018-03-11T16:31:38.484Z,14.56
2018-03-11T16:33:40.954Z,14.55
2018-03-11T16:35:43.469Z,14.56
2018-03-11T16:37:46.016Z,14.52
2018-03-11T16:39:48.501Z,14.42
2018-03-11T16:41:50.992Z,14.33
2018-03-11T16:43:53.483Z,14.25
2018-03-11T16:45:55.921Z,14.15
2018-03-11T16:47:58.463Z,14.10
2018-03-11T16:50:00.923Z,14.06
2018-03-11T16:52:03.427Z,14.05
2018-03-11T16:54:05.937Z,13.99
2018-03-11T16:56:08.462Z,13.97
2018-03-11T16:58:11.110Z,13.90
2018-03-11T17:00:13.594Z,13.89
2018-03-11T17:02:16.163Z,13.85
2018-03-11T17:04:18.633Z,13.79
2018-03-11T17:06:21.142Z,13.79
2018-03-11T17:08:23.708Z,13.76
2018-03-11T17:10:26.304Z,13.73
2018-03-11T17:12:28.753Z,13.76
2018-03-11T17:14:31.320Z,13.69
2018-03-11T17:16:33.818Z,13.67
2018-03-11T17:18:36.352Z,13.60
2018-03-11T17:20:38.830Z,13.56
2018-03-11T17:22:41.851Z,13.48
2018-03-11T17:24:44.530Z,13.47
2018-03-11T17:26:47.038Z,13.50
2018-03-11T17:28:49.549Z,13.45
2018-03-11T17:30:52.057Z,13.41
2018-03-11T17:32:54.598Z,13.36
2018-03-11T17:34:57.250Z,13.33
2018-03-11T17:36:59.762Z,13.26
2018-03-11T17:39:02.299Z,13.24
2018-03-11T17:41:04.834Z,13.21
2018-03-11T17:43:07.348Z,13.15
2018-03-11T17:45:09.918Z,13.10
2018-03-11T17:47:12.449Z,13.10
2018-03-11T17:49:14.945Z,13.08
2018-03-11T17:51:17.434Z,13.07
2018-03-11T17:53:19.993Z,13.04
2018-03-11T17:55:22.583Z,12.96
2018-03-11T17:57:25.268Z,12.90
2018-03-11T17:59:27.788Z,12.81
2018-03-11T18:01:30.424Z,12.71
2018-03-11T18:03:32.876Z,12.66
2018-03-11T18:05:35.463Z,12.56
2018-03-11T18:07:37.963Z,12.45
2018-03-11T18:09:40.550Z,12.36
2018-03-11T18:11:43.125Z,12.27
2018-03-11T18:13:45.749Z,12.20
2018-03-11T18:15:48.252Z,12.13
2018-03-11T18:17:50.816Z,12.12
2018-03-11T18:19:53.302Z,12.11
2018-03-11T18:21:55.759Z,12.05
2018-03-11T18:23:58.264Z,12.01
2018-03-11T18:26:00.742Z,12.14
2018-03-11T18:28:03.488Z,12.17
2018-03-11T18:30:05.980Z,12.15
2018-03-11T18:32:08.462Z,12.32
2018-03-11T18:34:11.077Z,12.22
2018-03-11T18:36:13.616Z,12.22
2018-03-11T18:38:16.104Z,12.18
2018-03-11T18:40:18.609Z,12.06
2018-03-11T18:42:21.219Z,11.97
2018-03-11T18:44:23.700Z,11.87
2018-03-11T18:46:26.160Z,11.78
2018-03-11T18:48:28.679Z,11.77
2018-03-11T18:50:31.151Z,11.81
2018-03-11T18:52:33.675Z,11.88
2018-03-11T18:54:36.268Z,11.78
2018-03-11T18:56:38.813Z,11.72
2018-03-11T18:58:41.319Z,11.66
2018-03-11T19:00:43.870Z,11.59
2018-03-11T19:02:46.392Z,11.48
2018-03-11T19:04:49.000Z,11.41
2018-03-11T19:06:51.588Z,11.42
2018-03-11T19:08:54.386Z,11.38
2018-03-11T19:10:56.864Z,11.33
2018-03-11T19:12:59.540Z,11.32
2018-03-11T19:15:02.142Z,11.31
2018-03-11T19:17:04.625Z,11.29
2018-03-11T19:19:07.168Z,11.26
2018-03-11T19:21:09.771Z,11.20
2018-03-11T19:23:12.446Z,11.23
2018-03-11T19:25:15.008Z,11.24
2018-03-11T19:27:17.656Z,11.28
2018-03-11T19:29:20.131Z,11.23
2018-03-11T19:31:22.693Z,11.18
2018-03-11T19:33:25.195Z,11.18
2018-03-11T19:35:27.729Z,11.13
2018-03-11T19:37:30.249Z,11.23
2018-03-11T19:39:32.751Z,11.27
2018-03-11T19:41:35.301Z,11.26
2018-03-11T19:43:37.781Z,11.52
2018-03-11T19:45:40.389Z,11.48
2018-03-11T19:47:42.858Z,11.54
2018-03-11T19:49:45.310Z,11.48
2018-03-11T19:51:47.863Z,11.42
2018-03-11T19:53:50.370Z,11.36
2018-03-11T19:55:53.013Z,11.39
2018-03-11T19:57:55.430Z,11.39
2018-03-11T19:59:58.047Z,11.57
2018-03-11T20:02:00.553Z,11.54
2018-03-11T20:04:03.048Z,11.39
2018-03-11T20:06:05.566Z,11.30
2018-03-11T20:08:08.102Z,11.26
2018-03-11T20:10:10.529Z,11.27
2018-03-11T20:12:13.035Z,11.34
2018-03-11T20:14:15.575Z,11.34
2018-03-11T20:16:18.154Z,11.28
2018-03-11T20:18:20.691Z,11.29
2018-03-11T20:20:23.192Z,11.32
2018-03-11T20:22:25.686Z,11.25
2018-03-11T20:24:28.209Z,11.19
2018-03-11T20:26:30.739Z,11.14
2018-03-11T20:28:33.200Z,11.15
2018-03-11T20:30:35.724Z,11.15
2018-03-11T20:32:38.274Z,11.14
2018-03-11T20:34:40.764Z,11.16
2018-03-11T20:36:43.299Z,11.10
2018-03-11T20:38:45.816Z,11.07
2018-03-11T20:40:48.313Z,11.05
2018-03-11T20:42:51.010Z,10.99
2018-03-11T20:44:53.612Z,10.92
2018-03-11T20:46:56.105Z,10.92
2018-03-11T20:48:58.626Z,10.89
2018-03-11T20:51:01.188Z,11.27
2018-03-11T20:53:03.683Z,11.15
2018-03-11T20:55:06.225Z,11.10
2018-03-11T20:57:08.798Z,11.14
2018-03-11T20:59:11.221Z,11.18
2018-03-11T21:01:13.740Z,11.16
2018-03-11T21:03:16.262Z,11.08
2018-03-11T21:05:18.741Z,11.01
2018-03-11T21:07:21.240Z,11.01
2018-03-11T21:09:23.933Z,11.08
2018-03-11T21:11:26.533Z,11.01
2018-03-11T21:13:28.995Z,10.99
2018-03-11T21:15:31.511Z,10.94
2018-03-11T21:17:34.110Z,10.94
2018-03-11T21:19:36.590Z,10.87
2018-03-11T21:21:39.180Z,10.80
2018-03-11T21:23:41.697Z,10.72
2018-03-11T21:25:44.235Z,10.69
2018-03-11T21:27:46.745Z,10.66
2018-03-11T21:29:49.287Z,10.66
2018-03-11T21:31:51.800Z,10.58
2018-03-11T21:33:54.250Z,10.57
2018-03-11T21:35:56.751Z,10.62
2018-03-11T21:37:59.256Z,10.62
2018-03-11T21:40:01.771Z,10.57
2018-03-11T21:42:04.311Z,10.54
2018-03-11T21:44:06.795Z,10.48
2018-03-11T21:46:09.290Z,10.43
2018-03-11T21:48:11.746Z,10.43
2018-03-11T21:50:14.199Z,10.44
2018-03-11T21:52:16.722Z,10.46
2018-03-11T21:54:19.214Z,10.48
2018-03-11T21:56:21.697Z,10.59
2018-03-11T21:58:24.282Z,10.63
2018-03-11T22:00:26.809Z,10.68
2018-03-11T22:02:30.087Z,10.69
2018-03-11T22:04:32.580Z,10.64
2018-03-11T22:06:35.177Z,10.55
2018-03-11T22:08:37.783Z,10.54
2018-03-11T22:10:40.362Z,10.48
2018-03-11T22:12:42.830Z,10.44
2018-03-11T22:14:45.432Z,10.36
2018-03-11T22:16:47.941Z,10.33
2018-03-11T22:18:50.444Z,10.37
2018-03-11T22:20:52.919Z,10.33
2018-03-11T22:22:55.376Z,10.31
2018-03-11T22:24:57.917Z,10.29
2018-03-11T22:27:00.410Z,10.24
2018-03-11T22:29:02.852Z,10.15
2018-03-11T22:31:05.400Z,10.09
2018-03-11T22:33:07.847Z,10.04
2018-03-11T22:35:10.842Z,9.99
2018-03-11T22:37:13.322Z,10.00
2018-03-11T22:39:15.803Z,9.99
2018-03-11T22:41:18.257Z,9.98
2018-03-11T22:43:20.775Z,9.95
2018-03-11T22:45:23.267Z,9.96
2018-03-11T22:47:25.848Z,10.04
2018-03-11T22:49:28.283Z,10.03
2018-03-11T22:51:30.786Z,10.11
2018-03-11T22:53:33.330Z,10.08
2018-03-11T22:55:35.797Z,10.05
2018-03-11T22:57:38.393Z,9.97
2018-03-11T22:59:40.837Z,9.89
2018-03-11T23:01:43.263Z,9.88
2018-03-11T23:03:45.793Z,9.85
2018-03-11T23:05:48.313Z,9.85
2018-03-11T23:07:50.740Z,9.84
2018-03-11T23:09:53.277Z,9.83
2018-03-11T23:11:55.761Z,9.89
2018-03-11T23:13:58.236Z,9.85
2018-03-11T23:16:00.757Z,9.85
2018-03-11T23:18:03.238Z,9.85
2018-03-11T23:20:05.687Z,9.85
2018-03-11T23:22:08.176Z,9.83
2018-03-11T23:24:10.726Z,9.85
2018-03-11T23:26:13.183Z,9.82
2018-03-11T23:28:15.711Z,9.80
2018-03-11T23:30:18.153Z,9.80
2018-03-11T23:32:20.606Z,9.77
2018-03-11T23:34:23.073Z,9.72
2018-03-11T23:36:25.522Z,9.67
2018-03-11T23:38:28.181Z,9.70
2018-03-11T23:40:30.631Z,9.68
2018-03-11T23:42:33.073Z,9.65
2018-03-11T23:44:35.541Z,9.64
2018-03-11T23:46:37.973Z,9.64
2018-03-11T23:48:40.454Z,9.62
2018-03-11T23:50:42.892Z,9.57
2018-03-11T23:52:45.373Z,9.55
2018-03-11T23:54:47.876Z,9.55
2018-03-11T23:56:50.411Z,9.53
2018-03-11T23:58:52.862Z,9.54
